createdAt,value
2022-12-26T00:01:05.644Z,9.80
2022-12-26T00:03:33.284Z,9.80
2022-12-26T00:06:00.677Z,9.80
2022-12-26T00:08:27.949Z,9.80
2022-12-26T00:10:55.293Z,9.80
2022-12-26T00:13:38.936Z,9.90
2022-12-26T00:16:16.516Z,9.80
2022-12-26T00:18:44.829Z,9.80
2022-12-26T00:21:14.513Z,9.80
2022-12-26T00:23:42.489Z,9.80
2022-12-26T00:26:13.060Z,9.80
2022-12-26T00:28:40.499Z,9.80
2022-12-26T00:31:12.065Z,9.80
2022-12-26T00:33:39.788Z,9.70
2022-12-26T00:36:10.497Z,9.70
2022-12-26T00:38:39.005Z,9.70
2022-12-26T00:41:08.416Z,9.70
2022-12-26T00:43:36.124Z,9.70
2022-12-26T00:46:03.971Z,9.80
2022-12-26T00:48:31.365Z,9.80
2022-12-26T00:50:59.250Z,9.80
2022-12-26T00:53:27.114Z,9.90
2022-12-26T00:55:54.737Z,10.00
2022-12-26T00:58:22.949Z,10.00
2022-12-26T01:00:51.257Z,10.00
2022-12-26T01:03:19.631Z,10.00
2022-12-26T01:05:50.624Z,10.00
2022-12-26T01:08:21.059Z,10.00
2022-12-26T01:10:51.937Z,10.00
2022-12-26T01:13:19.628Z,10.00
2022-12-26T01:15:54.361Z,9.90
2022-12-26T01:18:22.315Z,9.90
2022-12-26T01:20:49.926Z,10.00
2022-12-26T01:23:17.950Z,10.00
2022-12-26T01:26:17.322Z,10.00
2022-12-26T01:28:32.692Z,10.00
2022-12-26T01:31:06.422Z,10.00
2022-12-26T01:33:33.945Z,10.00
2022-12-26T01:36:01.451Z,9.90
2022-12-26T01:38:29.414Z,9.90
2022-12-26T01:41:15.208Z,9.90
2022-12-26T01:43:49.485Z,9.90
2022-12-26T01:46:21.433Z,9.90
2022-12-26T01:48:49.927Z,9.80
2022-12-26T01:51:19.658Z,9.80
2022-12-26T01:53:50.101Z,9.80
2022-12-26T01:56:24.031Z,9.70
2022-12-26T01:58:58.628Z,9.70
2022-12-26T02:01:31.185Z,9.70
2022-12-26T02:04:19.898Z,9.70
2022-12-26T02:06:47.547Z,9.70
2022-12-26T02:09:14.760Z,9.70
2022-12-26T02:11:48.846Z,9.60
2022-12-26T02:14:37.922Z,9.60
2022-12-26T02:17:07.336Z,9.60
2022-12-26T02:19:43.373Z,9.60
2022-12-26T02:22:35.487Z,9.60
2022-12-26T02:25:43.943Z,9.60
2022-12-26T02:28:47.708Z,9.50
2022-12-26T02:31:36.228Z,9.50
2022-12-26T02:34:21.607Z,9.40
2022-12-26T02:36:54.607Z,9.40
2022-12-26T02:39:45.183Z,9.40
2022-12-26T02:42:29.280Z,9.40
2022-12-26T02:45:28.594Z,9.40
2022-12-26T02:48:21.998Z,9.40
2022-12-26T02:51:26.097Z,9.30
2022-12-26T02:54:40.041Z,9.30
2022-12-26T02:57:30.876Z,9.40
2022-12-26T03:00:21.598Z,9.50
2022-12-26T03:03:40.965Z,9.50
2022-12-26T03:06:33.488Z,9.60
2022-12-26T03:09:29.467Z,9.60
2022-12-26T03:12:37.157Z,9.60
2022-12-26T03:15:09.138Z,9.60
2022-12-26T03:17:44.479Z,9.70
2022-12-26T03:20:12.412Z,9.70
2022-12-26T03:22:41.687Z,9.70
2022-12-26T03:25:33.175Z,9.70
2022-12-26T03:28:00.604Z,9.80
2022-12-26T03:30:48.231Z,9.80
2022-12-26T03:33:46.099Z,9.80
2022-12-26T03:36:29.533Z,9.80
2022-12-26T03:39:46.043Z,9.80
2022-12-26T03:43:05.252Z,9.80
2022-12-26T03:45:54.123Z,9.90
2022-12-26T03:49:09.969Z,9.90
2022-12-26T03:52:16.318Z,10.00
2022-12-26T03:55:26.967Z,10.10
2022-12-26T03:58:24.419Z,10.10
2022-12-26T04:01:14.225Z,10.20
2022-12-26T04:04:03.036Z,10.20
2022-12-26T04:07:11.959Z,10.20
2022-12-26T04:10:07.201Z,10.30
2022-12-26T04:12:57.845Z,10.20
2022-12-26T04:16:07.723Z,10.30
2022-12-26T04:19:15.539Z,10.30
2022-12-26T04:22:11.350Z,10.30
2022-12-26T04:25:16.086Z,10.40
2022-12-26T04:28:02.318Z,10.40
2022-12-26T04:30:51.402Z,10.40
2022-12-26T04:33:44.260Z,10.50
2022-12-26T04:36:39.407Z,10.50
2022-12-26T04:39:29.392Z,10.40
2022-12-26T04:42:17.321Z,10.40
2022-12-26T04:44:45.943Z,10.40
2022-12-26T04:47:13.395Z,10.40
2022-12-26T04:50:03.731Z,10.50
2022-12-26T04:52:51.303Z,10.50
2022-12-26T04:55:18.737Z,10.50
2022-12-26T04:57:46.126Z,10.40
2022-12-26T05:00:14.133Z,10.50
2022-12-26T05:02:59.925Z,10.50
2022-12-26T05:05:45.780Z,10.50
2022-12-26T05:08:44.404Z,10.60
2022-12-26T05:11:11.805Z,10.50
2022-12-26T05:13:39.158Z,10.60
2022-12-26T05:16:25.695Z,10.60
2022-12-26T05:19:12.358Z,10.60
2022-12-26T05:21:58.174Z,10.60
2022-12-26T05:24:49.990Z,10.70
2022-12-26T05:27:35.788Z,10.70
2022-12-26T05:30:03.401Z,10.70
2022-12-26T05:32:48.896Z,10.80
2022-12-26T05:35:16.123Z,10.80
2022-12-26T05:37:43.437Z,10.80
2022-12-26T05:40:11.166Z,10.90
2022-12-26T05:42:38.535Z,10.90
2022-12-26T05:45:06.404Z,10.90
2022-12-26T05:47:33.599Z,10.90
2022-12-26T05:50:01.043Z,10.90
2022-12-26T05:52:28.217Z,10.90
2022-12-26T05:54:55.380Z,10.90
2022-12-26T05:57:22.701Z,11.00
2022-12-26T05:59:49.930Z,11.00
2022-12-26T06:02:17.267Z,11.00
2022-12-26T06:04:44.692Z,11.10
2022-12-26T06:07:12.021Z,11.10
2022-12-26T06:09:39.382Z,11.00
2022-12-26T06:12:06.742Z,11.10
2022-12-26T06:14:34.056Z,11.10
2022-12-26T06:17:01.325Z,11.10
2022-12-26T06:19:28.627Z,11.20
2022-12-26T06:21:56.130Z,11.20
2022-12-26T06:24:23.490Z,11.20
2022-12-26T06:26:50.780Z,11.20
2022-12-26T06:29:18.051Z,11.20
2022-12-26T06:31:45.243Z,11.20
2022-12-26T06:34:13.053Z,11.20
2022-12-26T06:36:40.375Z,11.20
2022-12-26T06:39:07.750Z,11.10
2022-12-26T06:41:35.061Z,11.10
2022-12-26T06:44:02.527Z,11.10
2022-12-26T06:46:29.923Z,11.10
2022-12-26T06:48:57.248Z,11.10
2022-12-26T06:51:27.113Z,11.10
2022-12-26T06:53:55.074Z,11.10
2022-12-26T06:56:25.237Z,11.10
2022-12-26T06:58:56.783Z,11.10
2022-12-26T07:01:25.338Z,11.20
2022-12-26T07:03:53.945Z,11.20
2022-12-26T07:06:25.259Z,11.10
2022-12-26T07:08:54.450Z,11.20
2022-12-26T07:11:26.316Z,11.10
2022-12-26T07:13:54.806Z,11.20
2022-12-26T07:16:22.770Z,11.20
2022-12-26T07:18:53.057Z,11.10
2022-12-26T07:21:20.887Z,11.10
2022-12-26T07:23:48.657Z,11.20
2022-12-26T07:26:16.089Z,11.10
2022-12-26T07:28:43.569Z,11.10
2022-12-26T07:31:19.575Z,11.10
2022-12-26T07:33:52.177Z,11.00
2022-12-26T07:36:20.337Z,11.10
2022-12-26T07:38:48.454Z,11.00
2022-12-26T07:41:33.994Z,11.10
2022-12-26T07:44:02.063Z,11.10
2022-12-26T07:46:30.392Z,11.10
2022-12-26T07:48:57.838Z,11.20
2022-12-26T07:51:25.207Z,11.20
2022-12-26T07:53:52.451Z,11.30
2022-12-26T07:56:19.771Z,11.30
2022-12-26T07:58:51.692Z,11.30
2022-12-26T08:01:19.145Z,11.30
2022-12-26T08:03:49.038Z,11.40
2022-12-26T08:06:17.865Z,11.40
2022-12-26T08:08:50.830Z,11.40
2022-12-26T08:11:23.233Z,11.40
2022-12-26T08:13:51.430Z,11.40
2022-12-26T08:16:19.774Z,11.40
2022-12-26T08:18:47.657Z,11.40
2022-12-26T08:21:15.086Z,11.30
2022-12-26T08:23:42.539Z,11.30
2022-12-26T08:26:13.013Z,11.30
2022-12-26T08:28:42.516Z,11.30
2022-12-26T08:31:12.652Z,11.30
2022-12-26T08:33:40.255Z,11.30
2022-12-26T08:36:10.701Z,11.30
2022-12-26T08:38:38.649Z,11.30
2022-12-26T08:41:06.850Z,11.30
2022-12-26T08:44:16.115Z,11.30
2022-12-26T08:46:23.826Z,11.30
2022-12-26T08:48:52.453Z,11.30
2022-12-26T08:51:22.982Z,11.30
2022-12-26T08:53:51.568Z,11.30
2022-12-26T08:56:21.923Z,11.50
2022-12-26T08:58:49.747Z,11.40
2022-12-26T09:01:20.329Z,11.40
2022-12-26T09:03:48.703Z,11.40
2022-12-26T09:06:16.304Z,11.50
2022-12-26T09:08:43.830Z,11.50
2022-12-26T09:11:17.538Z,11.50
2022-12-26T09:13:45.919Z,11.50
2022-12-26T09:16:18.607Z,11.70
2022-12-26T09:18:46.818Z,11.80
2022-12-26T09:21:16.066Z,11.80
2022-12-26T09:23:43.844Z,11.80
2022-12-26T09:26:20.289Z,11.80
2022-12-26T09:28:47.942Z,11.70
2022-12-26T09:31:23.200Z,11.80
2022-12-26T09:33:51.421Z,11.80
2022-12-26T09:36:25.396Z,11.70
2022-12-26T09:38:54.696Z,11.80
2022-12-26T09:41:44.122Z,11.70
2022-12-26T09:44:28.722Z,11.70
2022-12-26T09:47:05.055Z,11.70
2022-12-26T09:49:40.746Z,11.60
2022-12-26T09:52:21.325Z,11.70
2022-12-26T09:55:03.865Z,11.60
2022-12-26T09:57:44.042Z,11.60
2022-12-26T10:00:21.943Z,11.60
2022-12-26T10:02:53.940Z,11.60
2022-12-26T10:05:26.112Z,11.50
2022-12-26T10:08:01.035Z,11.50
2022-12-26T10:10:46.824Z,11.50
2022-12-26T10:13:39.155Z,11.50
2022-12-26T10:16:16.543Z,11.50
2022-12-26T10:18:58.804Z,11.40
2022-12-26T10:21:26.065Z,11.30
2022-12-26T10:24:05.466Z,11.20
2022-12-26T10:26:37.494Z,11.10
2022-12-26T10:29:10.952Z,11.10
2022-12-26T10:31:47.815Z,11.10
2022-12-26T10:34:17.938Z,11.00
2022-12-26T10:36:57.383Z,10.90
2022-12-26T10:39:34.482Z,11.00
2022-12-26T10:42:11.802Z,10.90
2022-12-26T10:44:40.639Z,10.90
2022-12-26T10:47:30.588Z,10.80
2022-12-26T10:50:00.168Z,10.70
2022-12-26T10:52:32.502Z,10.70
2022-12-26T10:55:29.653Z,10.70
2022-12-26T10:57:52.179Z,10.60
2022-12-26T11:00:24.235Z,10.60
2022-12-26T11:03:03.995Z,10.50
2022-12-26T11:05:57.370Z,10.40
2022-12-26T11:08:24.371Z,10.40
2022-12-26T11:11:08.189Z,10.30
2022-12-26T11:13:45.986Z,10.30
2022-12-26T11:16:13.939Z,10.30
2022-12-26T11:18:48.735Z,10.30
2022-12-26T11:21:18.982Z,10.30
2022-12-26T11:23:47.617Z,10.30
2022-12-26T11:26:24.536Z,10.40
2022-12-26T11:29:12.851Z,10.40
2022-12-26T11:31:43.584Z,10.30
2022-12-26T11:34:18.682Z,10.40
2022-12-26T11:36:49.571Z,10.40
2022-12-26T11:39:30.831Z,10.40
2022-12-26T11:41:58.339Z,10.40
2022-12-26T11:44:30.437Z,10.40
2022-12-26T11:47:07.733Z,10.40
2022-12-26T11:49:47.339Z,10.50
2022-12-26T11:52:41.441Z,10.40
2022-12-26T11:55:24.291Z,10.30
2022-12-26T11:58:06.151Z,10.40
2022-12-26T12:00:39.331Z,10.40
2022-12-26T12:03:18.613Z,10.30
2022-12-26T12:06:13.312Z,10.40
2022-12-26T12:09:06.267Z,10.50
2022-12-26T12:11:52.273Z,10.50
2022-12-26T12:14:38.399Z,10.50
2022-12-26T12:18:05.473Z,10.50
2022-12-26T12:20:56.992Z,10.50
2022-12-26T12:23:43.512Z,10.40
2022-12-26T12:26:19.695Z,10.40
2022-12-26T12:29:08.376Z,10.40
2022-12-26T12:31:45.189Z,10.40
2022-12-26T12:34:12.605Z,10.40
2022-12-26T12:36:43.081Z,10.40
2022-12-26T12:39:12.991Z,10.30
2022-12-26T12:42:06.413Z,10.30
2022-12-26T12:44:57.192Z,10.30
2022-12-26T12:47:35.812Z,10.40
2022-12-26T12:50:21.249Z,10.40
2022-12-26T12:53:13.825Z,10.40
2022-12-26T12:56:11.560Z,10.50
2022-12-26T12:59:05.167Z,10.50
2022-12-26T13:01:42.434Z,10.60
2022-12-26T13:04:26.977Z,10.60
2022-12-26T13:06:59.845Z,10.60
2022-12-26T13:09:34.670Z,10.60
2022-12-26T13:12:08.356Z,10.70
2022-12-26T13:14:47.013Z,10.70
2022-12-26T13:17:35.097Z,10.70
2022-12-26T13:20:13.410Z,10.70
2022-12-26T13:23:12.752Z,10.70
2022-12-26T13:25:47.078Z,10.60
2022-12-26T13:28:23.327Z,10.60
2022-12-26T13:30:55.313Z,10.60
2022-12-26T13:33:23.195Z,10.50
2022-12-26T13:35:59.194Z,10.50
2022-12-26T13:38:58.655Z,10.40
2022-12-26T13:41:45.661Z,10.50
2022-12-26T13:44:18.905Z,10.50
2022-12-26T13:46:46.077Z,10.50
2022-12-26T13:49:38.865Z,10.50
2022-12-26T13:52:35.340Z,10.50
2022-12-26T13:55:06.711Z,10.40
2022-12-26T13:57:42.797Z,10.40
2022-12-26T14:00:17.905Z,10.40
2022-12-26T14:03:21.068Z,10.50
2022-12-26T14:06:07.271Z,10.40
2022-12-26T14:08:58.774Z,10.40
2022-12-26T14:11:37.560Z,10.30
2022-12-26T14:14:19.522Z,10.40
2022-12-26T14:17:20.909Z,10.40
2022-12-26T14:19:56.570Z,10.40
2022-12-26T14:22:52.978Z,10.30
2022-12-26T14:25:28.088Z,10.30
2022-12-26T14:28:20.707Z,10.30
2022-12-26T14:31:19.230Z,10.30
2022-12-26T14:34:10.674Z,10.30
2022-12-26T14:36:48.537Z,10.30
2022-12-26T14:39:37.312Z,10.30
2022-12-26T14:42:26.919Z,10.30
2022-12-26T14:44:58.408Z,10.30
2022-12-26T14:47:48.873Z,10.30
2022-12-26T14:50:51.997Z,10.30
2022-12-26T14:53:29.108Z,10.20
2022-12-26T14:55:58.562Z,10.20
2022-12-26T14:58:36.669Z,10.20
2022-12-26T15:01:14.317Z,10.10
2022-12-26T15:04:10.281Z,10.10
2022-12-26T15:07:20.509Z,10.10
2022-12-26T15:10:12.621Z,10.10
2022-12-26T15:13:04.945Z,10.10
2022-12-26T15:16:00.075Z,10.10
2022-12-26T15:19:02.215Z,10.10
2022-12-26T15:22:12.951Z,10.10
2022-12-26T15:25:18.076Z,10.10
2022-12-26T15:28:23.169Z,10.10
2022-12-26T15:31:04.768Z,10.10
2022-12-26T15:33:39.749Z,10.10
2022-12-26T15:36:16.373Z,10.00
2022-12-26T15:38:51.429Z,10.00
2022-12-26T15:41:56.477Z,10.00
2022-12-26T15:44:46.810Z,10.00
2022-12-26T15:47:37.508Z,10.00
2022-12-26T15:50:35.706Z,10.10
2022-12-26T15:53:09.708Z,10.00
2022-12-26T15:56:07.736Z,10.00
2022-12-26T15:58:49.897Z,9.90
2022-12-26T16:01:39.115Z,9.80
2022-12-26T16:04:46.821Z,9.90
2022-12-26T16:07:52.424Z,9.80
2022-12-26T16:10:25.806Z,9.80
2022-12-26T16:13:11.851Z,9.80
2022-12-26T16:15:49.043Z,9.70
2022-12-26T16:18:19.537Z,9.70
2022-12-26T16:21:07.379Z,9.70
2022-12-26T16:23:38.723Z,9.70
2022-12-26T16:26:06.761Z,9.70
2022-12-26T16:28:41.834Z,9.70
2022-12-26T16:31:10.381Z,9.70
2022-12-26T16:33:43.129Z,9.60
2022-12-26T16:36:15.803Z,9.60
2022-12-26T16:38:44.689Z,9.60
2022-12-26T16:41:29.963Z,9.60
2022-12-26T16:44:17.964Z,9.60
2022-12-26T16:46:45.785Z,9.60
2022-12-26T16:49:13.378Z,9.60
2022-12-26T16:51:51.829Z,9.60
2022-12-26T16:54:27.550Z,9.60
2022-12-26T16:57:16.032Z,9.60
2022-12-26T16:59:52.612Z,9.60
2022-12-26T17:02:27.245Z,9.60
2022-12-26T17:05:06.820Z,9.60
2022-12-26T17:07:39.410Z,9.70
2022-12-26T17:10:12.323Z,9.70
2022-12-26T17:12:41.179Z,9.70
2022-12-26T17:15:18.236Z,9.70
2022-12-26T17:17:46.384Z,9.70
2022-12-26T17:20:22.864Z,9.70
2022-12-26T17:22:54.466Z,9.70
2022-12-26T17:25:26.873Z,9.70
2022-12-26T17:28:12.556Z,9.70
2022-12-26T17:30:48.792Z,9.60
2022-12-26T17:33:28.468Z,9.60
2022-12-26T17:38:46.588Z,9.60
2022-12-26T17:41:16.515Z,9.60
2022-12-26T17:43:45.598Z,9.60
2022-12-26T17:46:15.883Z,9.60
2022-12-26T17:48:43.863Z,9.50
2022-12-26T17:51:18.842Z,9.50
2022-12-26T17:53:51.349Z,9.40
2022-12-26T17:56:22.762Z,9.50
2022-12-26T17:58:50.644Z,9.50
2022-12-26T18:01:21.258Z,9.60
2022-12-26T18:03:50.165Z,9.70
2022-12-26T18:06:20.432Z,9.70
2022-12-26T18:08:48.376Z,9.70
2022-12-26T18:11:15.732Z,9.70
2022-12-26T18:13:44.413Z,9.70
2022-12-26T18:16:20.447Z,9.80
2022-12-26T18:18:48.437Z,9.90
2022-12-26T18:21:16.610Z,9.80
2022-12-26T18:23:43.899Z,9.90
2022-12-26T18:26:26.390Z,9.80
2022-12-26T18:28:54.219Z,9.80
2022-12-26T18:31:21.910Z,9.80
2022-12-26T18:33:49.414Z,9.80
2022-12-26T18:36:17.477Z,9.80
2022-12-26T18:38:45.137Z,9.80
2022-12-26T18:41:20.389Z,9.90
2022-12-26T18:43:48.039Z,9.90
2022-12-26T18:46:23.089Z,9.90
2022-12-26T18:48:51.202Z,9.90
2022-12-26T18:51:19.569Z,9.90
2022-12-26T18:53:47.283Z,9.90
2022-12-26T18:56:18.666Z,9.90
2022-12-26T18:58:49.156Z,9.80
2022-12-26T19:01:20.322Z,9.80
2022-12-26T19:03:48.258Z,9.80
2022-12-26T19:06:25.296Z,9.70
2022-12-26T19:08:52.852Z,9.70
2022-12-26T19:11:20.778Z,9.60
2022-12-26T19:13:48.187Z,9.50
2022-12-26T19:16:15.859Z,9.30
2022-12-26T19:18:43.466Z,9.20
2022-12-26T19:21:14.768Z,9.00
2022-12-26T19:23:43.140Z,8.90
2022-12-26T19:26:12.295Z,8.80
2022-12-26T19:28:40.187Z,8.70
2022-12-26T19:31:12.895Z,8.60
2022-12-26T19:33:40.506Z,8.50
2022-12-26T19:36:08.750Z,8.50
2022-12-26T19:38:36.385Z,8.40
2022-12-26T19:41:04.549Z,8.40
2022-12-26T19:43:32.667Z,8.40
2022-12-26T19:46:05.441Z,8.40
2022-12-26T19:48:34.216Z,8.40
2022-12-26T19:51:02.942Z,8.30
2022-12-26T19:53:30.675Z,8.20
2022-12-26T19:55:58.063Z,8.30
2022-12-26T19:58:26.073Z,8.20
2022-12-26T20:00:53.499Z,8.10
2022-12-26T20:03:20.924Z,8.10
2022-12-26T20:05:48.195Z,8.10
2022-12-26T20:08:15.488Z,8.20
2022-12-26T20:10:42.712Z,8.10
2022-12-26T20:13:09.946Z,8.20
2022-12-26T20:15:37.216Z,8.20
2022-12-26T20:18:04.433Z,8.10
2022-12-26T20:20:31.954Z,8.10
2022-12-26T20:22:59.289Z,8.00
2022-12-26T20:25:26.639Z,8.00
2022-12-26T20:27:54.050Z,8.00
2022-12-26T20:30:21.382Z,8.10
2022-12-26T20:32:48.730Z,8.00
2022-12-26T20:35:16.144Z,8.00
2022-12-26T20:37:43.515Z,8.10
2022-12-26T20:40:11.316Z,8.00
2022-12-26T20:42:38.523Z,8.00
2022-12-26T20:45:06.350Z,8.00
2022-12-26T20:47:33.698Z,7.90
2022-12-26T20:50:01.014Z,7.90
2022-12-26T20:52:28.294Z,8.00
2022-12-26T20:54:55.543Z,8.00
2022-12-26T20:57:22.844Z,7.90
2022-12-26T20:59:50.071Z,7.90
2022-12-26T21:02:17.593Z,7.90
2022-12-26T21:04:45.010Z,7.90
2022-12-26T21:07:12.281Z,7.80
2022-12-26T21:09:45.782Z,7.80
2022-12-26T21:12:13.720Z,7.80
2022-12-26T21:14:41.517Z,7.80
2022-12-26T21:17:08.840Z,7.80
2022-12-26T21:19:36.250Z,7.90
2022-12-26T21:22:03.481Z,7.90
2022-12-26T21:24:32.065Z,7.90
2022-12-26T21:26:59.557Z,8.10
2022-12-26T21:29:29.548Z,8.00
2022-12-26T21:31:57.803Z,8.00
2022-12-26T21:34:27.366Z,8.00
2022-12-26T21:37:13.582Z,8.00
2022-12-26T21:39:41.422Z,8.00
2022-12-26T21:42:09.685Z,8.00
2022-12-26T21:44:37.427Z,8.10
2022-12-26T21:47:05.672Z,8.10
2022-12-26T21:49:32.981Z,8.00
2022-12-26T21:52:00.336Z,8.00
2022-12-26T21:54:49.213Z,8.00
2022-12-26T21:57:17.808Z,8.00
2022-12-26T21:59:58.415Z,7.90
2022-12-26T22:02:53.489Z,7.90
2022-12-26T22:05:25.839Z,7.90
2022-12-26T22:07:55.570Z,7.90
2022-12-26T22:10:46.429Z,7.90
2022-12-26T22:13:13.912Z,7.90
2022-12-26T22:16:04.878Z,7.90
2022-12-26T22:18:36.403Z,7.70
2022-12-26T22:21:21.437Z,7.60
2022-12-26T22:23:53.319Z,7.60
2022-12-26T22:26:22.300Z,7.60
2022-12-26T22:28:49.802Z,7.50
2022-12-26T22:31:23.115Z,7.40
2022-12-26T22:33:58.706Z,7.40
2022-12-26T22:36:27.055Z,7.40
2022-12-26T22:38:54.387Z,7.40
2022-12-26T22:41:22.278Z,7.30
2022-12-26T22:43:49.535Z,7.30
2022-12-26T22:46:16.898Z,7.40
2022-12-26T22:48:44.249Z,7.40
2022-12-26T22:51:17.454Z,7.40
2022-12-26T22:53:44.733Z,7.50
2022-12-26T22:56:12.139Z,7.50
2022-12-26T22:58:39.511Z,7.60
2022-12-26T23:01:18.830Z,7.60
2022-12-26T23:03:46.506Z,7.60
2022-12-26T23:06:26.359Z,7.60
2022-12-26T23:08:56.985Z,7.60
2022-12-26T23:11:33.759Z,7.50
2022-12-26T23:14:02.681Z,7.10
2022-12-26T23:16:42.421Z,6.70
2022-12-26T23:19:53.198Z,6.40
2022-12-26T23:22:20.826Z,6.20
2022-12-26T23:24:48.035Z,6.10
2022-12-26T23:27:33.988Z,5.90
2022-12-26T23:30:19.746Z,5.70
2022-12-26T23:32:51.335Z,5.50
2022-12-26T23:35:20.048Z,5.50
2022-12-26T23:37:47.617Z,5.50
2022-12-26T23:40:15.948Z,5.50
2022-12-26T23:42:43.512Z,5.50
2022-12-26T23:45:12.267Z,5.50
2022-12-26T23:47:41.185Z,5.50
2022-12-26T23:50:10.561Z,5.50
2022-12-26T23:52:38.379Z,5.50
2022-12-26T23:55:06.325Z,5.40
2022-12-26T23:57:33.909Z,5.50
